sensor_id;sensor_type;location;lat;lon;timestamp;P1;durP1;ratioP1;P2;durP2;ratioP2
29030;SDS011;16122;50.236;11.734;2023-03-23T00:01:48;3.73;;;2.43;;
29030;SDS011;16122;50.236;11.734;2023-03-23T00:04:17;4.33;;;2.60;;
29030;SDS011;16122;50.236;11.734;2023-03-23T00:06:43;6.50;;;2.80;;
29030;SDS011;16122;50.236;11.734;2023-03-23T00:09:11;4.70;;;3.07;;
29030;SDS011;16122;50.236;11.734;2023-03-23T00:11:40;5.47;;;3.23;;
29030;SDS011;16122;50.236;11.734;2023-03-23T00:14:07;2.73;;;1.90;;
29030;SDS011;16122;50.236;11.734;2023-03-23T00:16:38;4.63;;;2.47;;
29030;SDS011;16122;50.236;11.734;2023-03-23T00:19:09;3.43;;;2.10;;
29030;SDS011;16122;50.236;11.734;2023-03-23T00:21:41;4.90;;;2.40;;
29030;SDS011;16122;50.236;11.734;2023-03-23T00:24:12;4.23;;;2.47;;
29030;SDS011;16122;50.236;11.734;2023-03-23T00:26:39;5.23;;;2.50;;
29030;SDS011;16122;50.236;11.734;2023-03-23T00:29:16;6.33;;;2.50;;
29030;SDS011;16122;50.236;11.734;2023-03-23T00:31:44;5.63;;;2.90;;
29030;SDS011;16122;50.236;11.734;2023-03-23T00:34:20;3.70;;;2.50;;
29030;SDS011;16122;50.236;11.734;2023-03-23T00:36:56;2.87;;;2.13;;
29030;SDS011;16122;50.236;11.734;2023-03-23T00:39:22;3.83;;;2.70;;
29030;SDS011;16122;50.236;11.734;2023-03-23T00:41:50;5.30;;;2.33;;
29030;SDS011;16122;50.236;11.734;2023-03-23T00:44:16;4.83;;;2.50;;
29030;SDS011;16122;50.236;11.734;2023-03-23T00:46:43;3.73;;;1.83;;
29030;SDS011;16122;50.236;11.734;2023-03-23T00:49:18;4.80;;;2.57;;
29030;SDS011;16122;50.236;11.734;2023-03-23T00:51:45;3.83;;;2.20;;
29030;SDS011;16122;50.236;11.734;2023-03-23T00:54:11;5.73;;;2.40;;
29030;SDS011;16122;50.236;11.734;2023-03-23T00:56:38;4.40;;;2.50;;
29030;SDS011;16122;50.236;11.734;2023-03-23T00:59:05;3.50;;;2.37;;
29030;SDS011;16122;50.236;11.734;2023-03-23T01:01:31;4.40;;;2.40;;
29030;SDS011;16122;50.236;11.734;2023-03-23T01:03:58;3.73;;;2.10;;
29030;SDS011;16122;50.236;11.734;2023-03-23T01:06:29;4.20;;;2.43;;
29030;SDS011;16122;50.236;11.734;2023-03-23T01:08:57;3.47;;;2.47;;
29030;SDS011;16122;50.236;11.734;2023-03-23T01:11:24;5.07;;;2.30;;
29030;SDS011;16122;50.236;11.734;2023-03-23T01:13:50;3.30;;;2.03;;
29030;SDS011;16122;50.236;11.734;2023-03-23T01:16:19;2.80;;;1.93;;
29030;SDS011;16122;50.236;11.734;2023-03-23T01:18:45;3.90;;;2.10;;
29030;SDS011;16122;50.236;11.734;2023-03-23T01:21:13;3.77;;;1.90;;
29030;SDS011;16122;50.236;11.734;2023-03-23T01:23:41;3.77;;;1.80;;
29030;SDS011;16122;50.236;11.734;2023-03-23T01:26:09;2.10;;;1.70;;
29030;SDS011;16122;50.236;11.734;2023-03-23T01:28:40;3.80;;;2.00;;
29030;SDS011;16122;50.236;11.734;2023-03-23T01:31:08;2.43;;;1.90;;
29030;SDS011;16122;50.236;11.734;2023-03-23T01:33:37;2.47;;;1.90;;
29030;SDS011;16122;50.236;11.734;2023-03-23T01:36:06;2.73;;;1.67;;
29030;SDS011;16122;50.236;11.734;2023-03-23T01:38:34;2.53;;;1.80;;
29030;SDS011;16122;50.236;11.734;2023-03-23T01:41:00;2.43;;;1.70;;
29030;SDS011;16122;50.236;11.734;2023-03-23T01:43:27;3.73;;;1.80;;
29030;SDS011;16122;50.236;11.734;2023-03-23T01:45:53;2.37;;;1.80;;
29030;SDS011;16122;50.236;11.734;2023-03-23T01:51:09;2.40;;;1.80;;
29030;SDS011;16122;50.236;11.734;2023-03-23T01:53:46;2.23;;;1.77;;
29030;SDS011;16122;50.236;11.734;2023-03-23T01:56:25;2.10;;;1.90;;
29030;SDS011;16122;50.236;11.734;2023-03-23T01:58:59;3.07;;;1.60;;
29030;SDS011;16122;50.236;11.734;2023-03-23T02:01:25;3.00;;;1.90;;
29030;SDS011;16122;50.236;11.734;2023-03-23T02:03:52;3.33;;;1.90;;
29030;SDS011;16122;50.236;11.734;2023-03-23T02:06:21;1.63;;;1.53;;
29030;SDS011;16122;50.236;11.734;2023-03-23T02:09:10;2.40;;;1.50;;
29030;SDS011;16122;50.236;11.734;2023-03-23T02:11:39;2.80;;;1.90;;
29030;SDS011;16122;50.236;11.734;2023-03-23T02:14:05;2.43;;;1.80;;
29030;SDS011;16122;50.236;11.734;2023-03-23T02:30:40;3.53;;;1.87;;
29030;SDS011;16122;50.236;11.734;2023-03-23T02:33:20;2.03;;;1.83;;
29030;SDS011;16122;50.236;11.734;2023-03-23T02:35:50;2.87;;;1.80;;
29030;SDS011;16122;50.236;11.734;2023-03-23T02:38:25;2.70;;;1.73;;
29030;SDS011;16122;50.236;11.734;2023-03-23T02:40:56;1.70;;;1.37;;
29030;SDS011;16122;50.236;11.734;2023-03-23T02:43:28;2.33;;;1.20;;
29030;SDS011;16122;50.236;11.734;2023-03-23T02:46:01;1.60;;;1.37;;
29030;SDS011;16122;50.236;11.734;2023-03-23T02:48:31;1.57;;;1.47;;
29030;SDS011;16122;50.236;11.734;2023-03-23T02:50:59;2.03;;;1.53;;
29030;SDS011;16122;50.236;11.734;2023-03-23T02:53:26;2.03;;;1.50;;
29030;SDS011;16122;50.236;11.734;2023-03-23T02:55:56;2.63;;;1.40;;
29030;SDS011;16122;50.236;11.734;2023-03-23T02:58:26;1.33;;;1.23;;
29030;SDS011;16122;50.236;11.734;2023-03-23T03:00:53;2.23;;;1.80;;
29030;SDS011;16122;50.236;11.734;2023-03-23T03:03:22;2.50;;;1.77;;
29030;SDS011;16122;50.236;11.734;2023-03-23T03:11:12;2.60;;;1.77;;
29030;SDS011;16122;50.236;11.734;2023-03-23T03:13:45;2.00;;;1.80;;
29030;SDS011;16122;50.236;11.734;2023-03-23T03:21:20;1.30;;;1.20;;
29030;SDS011;16122;50.236;11.734;2023-03-23T03:23:54;2.43;;;1.53;;
29030;SDS011;16122;50.236;11.734;2023-03-23T03:26:27;2.30;;;1.57;;
29030;SDS011;16122;50.236;11.734;2023-03-23T03:29:09;1.40;;;1.30;;
29030;SDS011;16122;50.236;11.734;2023-03-23T03:31:41;2.23;;;1.87;;
29030;SDS011;16122;50.236;11.734;2023-03-23T03:34:11;2.30;;;1.73;;
29030;SDS011;16122;50.236;11.734;2023-03-23T03:36:38;1.73;;;1.50;;
29030;SDS011;16122;50.236;11.734;2023-03-23T03:39:09;2.03;;;1.60;;
29030;SDS011;16122;50.236;11.734;2023-03-23T03:41:36;1.67;;;1.50;;
29030;SDS011;16122;50.236;11.734;2023-03-23T03:44:03;2.60;;;2.20;;
29030;SDS011;16122;50.236;11.734;2023-03-23T03:46:30;1.63;;;1.40;;
29030;SDS011;16122;50.236;11.734;2023-03-23T03:48:57;2.40;;;1.57;;
29030;SDS011;16122;50.236;11.734;2023-03-23T03:51:24;1.50;;;1.30;;
29030;SDS011;16122;50.236;11.734;2023-03-23T03:53:52;2.00;;;1.70;;
29030;SDS011;16122;50.236;11.734;2023-03-23T03:56:19;1.70;;;1.40;;
29030;SDS011;16122;50.236;11.734;2023-03-23T03:58:55;1.50;;;1.40;;
29030;SDS011;16122;50.236;11.734;2023-03-23T04:01:41;2.17;;;1.40;;
29030;SDS011;16122;50.236;11.734;2023-03-23T04:04:07;1.37;;;1.27;;
29030;SDS011;16122;50.236;11.734;2023-03-23T04:06:34;1.93;;;1.73;;
29030;SDS011;16122;50.236;11.734;2023-03-23T04:09:03;2.17;;;1.20;;
29030;SDS011;16122;50.236;11.734;2023-03-23T04:11:34;1.73;;;1.40;;
29030;SDS011;16122;50.236;11.734;2023-03-23T04:14:20;1.90;;;1.53;;
29030;SDS011;16122;50.236;11.734;2023-03-23T04:16:46;1.50;;;1.30;;
29030;SDS011;16122;50.236;11.734;2023-03-23T04:19:12;2.20;;;1.20;;
29030;SDS011;16122;50.236;11.734;2023-03-23T04:21:39;2.33;;;1.50;;
29030;SDS011;16122;50.236;11.734;2023-03-23T04:24:05;1.80;;;1.50;;
29030;SDS011;16122;50.236;11.734;2023-03-23T04:26:32;2.23;;;1.63;;
29030;SDS011;16122;50.236;11.734;2023-03-23T04:29:04;3.23;;;1.47;;
29030;SDS011;16122;50.236;11.734;2023-03-23T04:31:34;1.53;;;1.43;;
29030;SDS011;16122;50.236;11.734;2023-03-23T04:34:24;3.40;;;1.87;;
29030;SDS011;16122;50.236;11.734;2023-03-23T04:36:51;1.63;;;1.40;;
29030;SDS011;16122;50.236;11.734;2023-03-23T04:39:21;1.20;;;1.00;;
29030;SDS011;16122;50.236;11.734;2023-03-23T04:41:50;1.23;;;1.13;;
29030;SDS011;16122;50.236;11.734;2023-03-23T04:44:33;1.60;;;1.50;;
29030;SDS011;16122;50.236;11.734;2023-03-23T04:47:04;1.50;;;1.40;;
29030;SDS011;16122;50.236;11.734;2023-03-23T04:49:34;1.40;;;1.20;;
29030;SDS011;16122;50.236;11.734;2023-03-23T04:52:11;1.63;;;1.50;;
29030;SDS011;16122;50.236;11.734;2023-03-23T04:54:43;1.40;;;1.30;;
29030;SDS011;16122;50.236;11.734;2023-03-23T04:57:09;2.40;;;2.10;;
29030;SDS011;16122;50.236;11.734;2023-03-23T04:59:40;3.73;;;1.87;;
29030;SDS011;16122;50.236;11.734;2023-03-23T05:02:11;1.60;;;1.50;;
29030;SDS011;16122;50.236;11.734;2023-03-23T05:04:39;1.93;;;1.70;;
29030;SDS011;16122;50.236;11.734;2023-03-23T05:07:19;1.73;;;1.60;;
29030;SDS011;16122;50.236;11.734;2023-03-23T05:09:47;3.77;;;2.10;;
29030;SDS011;16122;50.236;11.734;2023-03-23T05:12:15;1.60;;;1.50;;
29030;SDS011;16122;50.236;11.734;2023-03-23T05:14:52;2.40;;;1.40;;
29030;SDS011;16122;50.236;11.734;2023-03-23T05:17:20;3.53;;;1.73;;
29030;SDS011;16122;50.236;11.734;2023-03-23T05:19:51;3.67;;;1.40;;
29030;SDS011;16122;50.236;11.734;2023-03-23T05:22:32;2.40;;;1.60;;
29030;SDS011;16122;50.236;11.734;2023-03-23T05:24:59;1.50;;;1.20;;
29030;SDS011;16122;50.236;11.734;2023-03-23T05:27:32;1.97;;;1.57;;
29030;SDS011;16122;50.236;11.734;2023-03-23T05:30:04;1.77;;;1.40;;
29030;SDS011;16122;50.236;11.734;2023-03-23T05:32:32;3.63;;;1.20;;
29030;SDS011;16122;50.236;11.734;2023-03-23T05:35:12;2.10;;;1.63;;
29030;SDS011;16122;50.236;11.734;2023-03-23T05:37:38;1.13;;;1.00;;
29030;SDS011;16122;50.236;11.734;2023-03-23T05:40:07;3.33;;;1.73;;
29030;SDS011;16122;50.236;11.734;2023-03-23T05:42:33;1.57;;;1.40;;
29030;SDS011;16122;50.236;11.734;2023-03-23T05:45:18;5.27;;;1.50;;
29030;SDS011;16122;50.236;11.734;2023-03-23T05:47:46;2.87;;;1.20;;
29030;SDS011;16122;50.236;11.734;2023-03-23T05:50:17;1.20;;;1.10;;
29030;SDS011;16122;50.236;11.734;2023-03-23T05:52:44;3.00;;;1.30;;
29030;SDS011;16122;50.236;11.734;2023-03-23T05:55:12;3.63;;;1.60;;
29030;SDS011;16122;50.236;11.734;2023-03-23T05:57:40;1.70;;;1.30;;
29030;SDS011;16122;50.236;11.734;2023-03-23T06:00:22;2.40;;;1.63;;
29030;SDS011;16122;50.236;11.734;2023-03-23T06:02:55;2.30;;;1.80;;
29030;SDS011;16122;50.236;11.734;2023-03-23T06:05:29;1.90;;;1.17;;
29030;SDS011;16122;50.236;11.734;2023-03-23T06:07:56;2.70;;;1.30;;
29030;SDS011;16122;50.236;11.734;2023-03-23T06:10:23;3.67;;;1.33;;
29030;SDS011;16122;50.236;11.734;2023-03-23T06:12:54;3.03;;;1.33;;
29030;SDS011;16122;50.236;11.734;2023-03-23T06:15:38;1.80;;;1.30;;
29030;SDS011;16122;50.236;11.734;2023-03-23T06:18:16;2.37;;;1.40;;
29030;SDS011;16122;50.236;11.734;2023-03-23T06:21:01;1.20;;;1.10;;
29030;SDS011;16122;50.236;11.734;2023-03-23T06:23:59;1.40;;;1.30;;
29030;SDS011;16122;50.236;11.734;2023-03-23T06:26:38;2.60;;;1.47;;
29030;SDS011;16122;50.236;11.734;2023-03-23T06:29:10;2.20;;;1.30;;
29030;SDS011;16122;50.236;11.734;2023-03-23T06:31:40;1.23;;;1.10;;
29030;SDS011;16122;50.236;11.734;2023-03-23T06:34:10;1.23;;;1.10;;
29030;SDS011;16122;50.236;11.734;2023-03-23T06:37:06;1.70;;;1.50;;
29030;SDS011;16122;50.236;11.734;2023-03-23T06:39:52;4.47;;;1.57;;
29030;SDS011;16122;50.236;11.734;2023-03-23T06:42:29;6.50;;;2.50;;
29030;SDS011;16122;50.236;11.734;2023-03-23T06:45:33;10.70;;;3.50;;
29030;SDS011;16122;50.236;11.734;2023-03-23T06:48:18;17.33;;;5.43;;
29030;SDS011;16122;50.236;11.734;2023-03-23T06:50:44;17.80;;;6.23;;
29030;SDS011;16122;50.236;11.734;2023-03-23T06:53:13;15.53;;;5.80;;
29030;SDS011;16122;50.236;11.734;2023-03-23T06:55:41;19.23;;;5.07;;
29030;SDS011;16122;50.236;11.734;2023-03-23T06:58:08;11.93;;;5.00;;
29030;SDS011;16122;50.236;11.734;2023-03-23T07:00:34;14.83;;;5.17;;
29030;SDS011;16122;50.236;11.734;2023-03-23T07:03:00;15.00;;;4.80;;
29030;SDS011;16122;50.236;11.734;2023-03-23T07:05:26;26.30;;;5.50;;
29030;SDS011;16122;50.236;11.734;2023-03-23T07:07:53;19.50;;;5.90;;
29030;SDS011;16122;50.236;11.734;2023-03-23T07:10:28;20.53;;;6.10;;
29030;SDS011;16122;50.236;11.734;2023-03-23T07:12:54;12.10;;;4.20;;
29030;SDS011;16122;50.236;11.734;2023-03-23T07:15:21;17.87;;;4.77;;
29030;SDS011;16122;50.236;11.734;2023-03-23T07:17:50;13.93;;;4.67;;
29030;SDS011;16122;50.236;11.734;2023-03-23T07:20:31;15.47;;;4.80;;
29030;SDS011;16122;50.236;11.734;2023-03-23T07:22:57;10.33;;;4.23;;
29030;SDS011;16122;50.236;11.734;2023-03-23T07:25:52;15.53;;;4.90;;
29030;SDS011;16122;50.236;11.734;2023-03-23T07:28:23;15.77;;;4.53;;
29030;SDS011;16122;50.236;11.734;2023-03-23T07:30:51;10.37;;;4.20;;
29030;SDS011;16122;50.236;11.734;2023-03-23T07:33:17;14.93;;;4.97;;
29030;SDS011;16122;50.236;11.734;2023-03-23T07:35:44;16.20;;;4.27;;
29030;SDS011;16122;50.236;11.734;2023-03-23T07:38:14;15.60;;;4.17;;
29030;SDS011;16122;50.236;11.734;2023-03-23T07:40:45;15.37;;;5.57;;
29030;SDS011;16122;50.236;11.734;2023-03-23T07:43:14;11.97;;;4.83;;
29030;SDS011;16122;50.236;11.734;2023-03-23T07:46:07;16.43;;;5.13;;
29030;SDS011;16122;50.236;11.734;2023-03-23T07:48:48;11.80;;;4.70;;
29030;SDS011;16122;50.236;11.734;2023-03-23T07:51:15;16.17;;;5.10;;
29030;SDS011;16122;50.236;11.734;2023-03-23T07:53:43;8.67;;;4.03;;
29030;SDS011;16122;50.236;11.734;2023-03-23T07:56:39;9.40;;;3.80;;
29030;SDS011;16122;50.236;11.734;2023-03-23T07:59:14;14.67;;;4.40;;
29030;SDS011;16122;50.236;11.734;2023-03-23T08:01:41;10.00;;;3.90;;
29030;SDS011;16122;50.236;11.734;2023-03-23T08:04:26;11.83;;;4.20;;
29030;SDS011;16122;50.236;11.734;2023-03-23T08:07:11;10.83;;;3.87;;
29030;SDS011;16122;50.236;11.734;2023-03-23T08:09:49;9.57;;;4.00;;
29030;SDS011;16122;50.236;11.734;2023-03-23T08:12:35;9.40;;;3.60;;
29030;SDS011;16122;50.236;11.734;2023-03-23T08:15:16;10.33;;;3.80;;
29030;SDS011;16122;50.236;11.734;2023-03-23T08:17:51;9.07;;;3.77;;
29030;SDS011;16122;50.236;11.734;2023-03-23T08:20:49;10.20;;;4.10;;
29030;SDS011;16122;50.236;11.734;2023-03-23T08:23:31;7.77;;;3.70;;
29030;SDS011;16122;50.236;11.734;2023-03-23T08:26:16;10.37;;;3.40;;
29030;SDS011;16122;50.236;11.734;2023-03-23T08:29:01;8.73;;;3.80;;
29030;SDS011;16122;50.236;11.734;2023-03-23T08:31:52;9.63;;;4.03;;
29030;SDS011;16122;50.236;11.734;2023-03-23T08:34:37;8.47;;;3.70;;
29030;SDS011;16122;50.236;11.734;2023-03-23T08:37:16;9.20;;;3.33;;
29030;SDS011;16122;50.236;11.734;2023-03-23T08:40:12;11.20;;;4.33;;
29030;SDS011;16122;50.236;11.734;2023-03-23T08:42:49;7.27;;;3.10;;
29030;SDS011;16122;50.236;11.734;2023-03-23T08:45:34;8.97;;;3.10;;
29030;SDS011;16122;50.236;11.734;2023-03-23T08:48:24;7.43;;;3.50;;
29030;SDS011;16122;50.236;11.734;2023-03-23T08:51:16;8.37;;;3.40;;
29030;SDS011;16122;50.236;11.734;2023-03-23T08:54:11;7.33;;;2.90;;
29030;SDS011;16122;50.236;11.734;2023-03-23T08:56:55;8.97;;;3.30;;
29030;SDS011;16122;50.236;11.734;2023-03-23T08:59:46;7.03;;;2.87;;
29030;SDS011;16122;50.236;11.734;2023-03-23T09:02:17;5.93;;;3.50;;
29030;SDS011;16122;50.236;11.734;2023-03-23T09:05:04;10.90;;;3.57;;
29030;SDS011;16122;50.236;11.734;2023-03-23T09:08:01;8.20;;;2.97;;
29030;SDS011;16122;50.236;11.734;2023-03-23T09:10:29;7.90;;;3.00;;
29030;SDS011;16122;50.236;11.734;2023-03-23T09:12:55;4.40;;;3.07;;
29030;SDS011;16122;50.236;11.734;2023-03-23T09:15:22;6.93;;;2.97;;
29030;SDS011;16122;50.236;11.734;2023-03-23T09:17:49;7.00;;;3.00;;
29030;SDS011;16122;50.236;11.734;2023-03-23T09:20:17;6.43;;;2.87;;
29030;SDS011;16122;50.236;11.734;2023-03-23T09:22:46;8.77;;;3.47;;
29030;SDS011;16122;50.236;11.734;2023-03-23T09:25:14;5.70;;;2.67;;
29030;SDS011;16122;50.236;11.734;2023-03-23T09:27:44;4.67;;;2.50;;
29030;SDS011;16122;50.236;11.734;2023-03-23T09:30:12;5.20;;;2.37;;
29030;SDS011;16122;50.236;11.734;2023-03-23T09:32:39;6.13;;;3.00;;
29030;SDS011;16122;50.236;11.734;2023-03-23T09:35:09;6.33;;;2.80;;
29030;SDS011;16122;50.236;11.734;2023-03-23T09:37:37;7.33;;;3.20;;
29030;SDS011;16122;50.236;11.734;2023-03-23T09:40:05;9.17;;;3.13;;
29030;SDS011;16122;50.236;11.734;2023-03-23T09:42:57;7.63;;;2.43;;
29030;SDS011;16122;50.236;11.734;2023-03-23T09:45:43;3.80;;;2.70;;
29030;SDS011;16122;50.236;11.734;2023-03-23T09:53:45;7.37;;;3.00;;
29030;SDS011;16122;50.236;11.734;2023-03-23T09:56:18;9.47;;;2.83;;
29030;SDS011;16122;50.236;11.734;2023-03-23T09:58:49;5.53;;;2.93;;
29030;SDS011;16122;50.236;11.734;2023-03-23T10:01:41;4.87;;;2.10;;
29030;SDS011;16122;50.236;11.734;2023-03-23T10:04:30;4.07;;;2.40;;
29030;SDS011;16122;50.236;11.734;2023-03-23T10:07:10;6.10;;;2.40;;
29030;SDS011;16122;50.236;11.734;2023-03-23T10:09:48;5.23;;;2.17;;
29030;SDS011;16122;50.236;11.734;2023-03-23T10:12:23;3.90;;;2.20;;
29030;SDS011;16122;50.236;11.734;2023-03-23T10:15:25;4.30;;;2.73;;
29030;SDS011;16122;50.236;11.734;2023-03-23T10:18:29;6.13;;;2.70;;
29030;SDS011;16122;50.236;11.734;2023-03-23T10:20:56;7.20;;;2.57;;
29030;SDS011;16122;50.236;11.734;2023-03-23T10:23:33;6.50;;;2.60;;
29030;SDS011;16122;50.236;11.734;2023-03-23T10:31:44;4.23;;;2.40;;
29030;SDS011;16122;50.236;11.734;2023-03-23T10:34:16;5.93;;;2.80;;
29030;SDS011;16122;50.236;11.734;2023-03-23T10:37:23;5.90;;;2.57;;
29030;SDS011;16122;50.236;11.734;2023-03-23T10:39:59;4.10;;;2.40;;
29030;SDS011;16122;50.236;11.734;2023-03-23T10:42:35;3.93;;;2.03;;
29030;SDS011;16122;50.236;11.734;2023-03-23T10:45:36;5.03;;;2.37;;
29030;SDS011;16122;50.236;11.734;2023-03-23T10:47:59;3.70;;;2.67;;
29030;SDS011;16122;50.236;11.734;2023-03-23T10:50:48;3.87;;;2.23;;
29030;SDS011;16122;50.236;11.734;2023-03-23T10:53:39;2.73;;;2.13;;
29030;SDS011;16122;50.236;11.734;2023-03-23T10:59:14;3.90;;;2.03;;
29030;SDS011;16122;50.236;11.734;2023-03-23T11:01:45;3.20;;;2.17;;
29030;SDS011;16122;50.236;11.734;2023-03-23T11:04:16;3.57;;;2.37;;
29030;SDS011;16122;50.236;11.734;2023-03-23T11:06:45;3.13;;;2.33;;
29030;SDS011;16122;50.236;11.734;2023-03-23T11:09:14;2.50;;;1.63;;
29030;SDS011;16122;50.236;11.734;2023-03-23T11:11:52;3.63;;;2.20;;
29030;SDS011;16122;50.236;11.734;2023-03-23T11:14:30;2.53;;;2.30;;
29030;SDS011;16122;50.236;11.734;2023-03-23T11:17:00;6.33;;;2.10;;
29030;SDS011;16122;50.236;11.734;2023-03-23T11:19:28;4.53;;;1.90;;
29030;SDS011;16122;50.236;11.734;2023-03-23T11:22:06;3.10;;;2.20;;
29030;SDS011;16122;50.236;11.734;2023-03-23T11:24:35;4.30;;;2.10;;
29030;SDS011;16122;50.236;11.734;2023-03-23T11:27:06;3.00;;;1.93;;
29030;SDS011;16122;50.236;11.734;2023-03-23T11:29:34;3.07;;;1.93;;
29030;SDS011;16122;50.236;11.734;2023-03-23T11:32:03;3.03;;;1.87;;
29030;SDS011;16122;50.236;11.734;2023-03-23T11:34:39;2.17;;;1.77;;
29030;SDS011;16122;50.236;11.734;2023-03-23T11:37:14;3.10;;;2.00;;
29030;SDS011;16122;50.236;11.734;2023-03-23T11:39:48;3.90;;;2.30;;
29030;SDS011;16122;50.236;11.734;2023-03-23T11:49:53;3.30;;;2.10;;
29030;SDS011;16122;50.236;11.734;2023-03-23T11:58:20;3.37;;;1.90;;
29030;SDS011;16122;50.236;11.734;2023-03-23T12:00:57;6.87;;;2.40;;
29030;SDS011;16122;50.236;11.734;2023-03-23T12:04:12;4.80;;;1.90;;
29030;SDS011;16122;50.236;11.734;2023-03-23T12:07:09;3.23;;;1.87;;
29030;SDS011;16122;50.236;11.734;2023-03-23T12:26:30;2.10;;;1.80;;
29030;SDS011;16122;50.236;11.734;2023-03-23T12:29:04;2.67;;;1.80;;
29030;SDS011;16122;50.236;11.734;2023-03-23T12:32:26;2.53;;;2.00;;
29030;SDS011;16122;50.236;11.734;2023-03-23T12:34:38;2.93;;;2.20;;
29030;SDS011;16122;50.236;11.734;2023-03-23T12:44:39;3.60;;;1.60;;
29030;SDS011;16122;50.236;11.734;2023-03-23T12:50:11;6.03;;;2.20;;
29030;SDS011;16122;50.236;11.734;2023-03-23T12:53:00;2.73;;;1.50;;
29030;SDS011;16122;50.236;11.734;2023-03-23T12:58:08;1.67;;;1.50;;
29030;SDS011;16122;50.236;11.734;2023-03-23T13:03:26;3.93;;;1.70;;
29030;SDS011;16122;50.236;11.734;2023-03-23T13:05:54;2.20;;;1.77;;
29030;SDS011;16122;50.236;11.734;2023-03-23T13:11:36;2.77;;;1.50;;
29030;SDS011;16122;50.236;11.734;2023-03-23T13:14:16;2.20;;;1.97;;
29030;SDS011;16122;50.236;11.734;2023-03-23T13:20:25;1.50;;;1.40;;
29030;SDS011;16122;50.236;11.734;2023-03-23T13:26:02;2.17;;;1.90;;
29030;SDS011;16122;50.236;11.734;2023-03-23T13:28:48;2.63;;;1.83;;
29030;SDS011;16122;50.236;11.734;2023-03-23T13:33:58;1.87;;;1.40;;
29030;SDS011;16122;50.236;11.734;2023-03-23T13:36:33;2.13;;;1.73;;
29030;SDS011;16122;50.236;11.734;2023-03-23T13:39:05;2.10;;;1.47;;
29030;SDS011;16122;50.236;11.734;2023-03-23T13:41:48;1.70;;;1.37;;
29030;SDS011;16122;50.236;11.734;2023-03-23T13:44:24;2.10;;;1.60;;
29030;SDS011;16122;50.236;11.734;2023-03-23T13:47:06;1.43;;;1.33;;
29030;SDS011;16122;50.236;11.734;2023-03-23T13:49:54;1.73;;;1.50;;
29030;SDS011;16122;50.236;11.734;2023-03-23T13:57:55;1.63;;;1.50;;
29030;SDS011;16122;50.236;11.734;2023-03-23T14:00:46;1.80;;;1.60;;
29030;SDS011;16122;50.236;11.734;2023-03-23T14:03:32;1.63;;;1.50;;
29030;SDS011;16122;50.236;11.734;2023-03-23T14:06:03;3.03;;;1.70;;
29030;SDS011;16122;50.236;11.734;2023-03-23T14:08:42;1.80;;;1.30;;
29030;SDS011;16122;50.236;11.734;2023-03-23T14:11:28;1.70;;;1.60;;
29030;SDS011;16122;50.236;11.734;2023-03-23T14:14:17;2.70;;;1.50;;
29030;SDS011;16122;50.236;11.734;2023-03-23T14:17:17;1.90;;;1.70;;
29030;SDS011;16122;50.236;11.734;2023-03-23T14:19:51;1.87;;;1.73;;
29030;SDS011;16122;50.236;11.734;2023-03-23T14:24:49;2.57;;;2.07;;
29030;SDS011;16122;50.236;11.734;2023-03-23T14:27:17;1.97;;;1.87;;
29030;SDS011;16122;50.236;11.734;2023-03-23T14:29:45;2.60;;;1.53;;
29030;SDS011;16122;50.236;11.734;2023-03-23T14:32:22;2.10;;;1.37;;
29030;SDS011;16122;50.236;11.734;2023-03-23T14:34:51;2.10;;;1.90;;
29030;SDS011;16122;50.236;11.734;2023-03-23T14:37:18;1.87;;;1.40;;
29030;SDS011;16122;50.236;11.734;2023-03-23T14:39:46;2.20;;;1.37;;
29030;SDS011;16122;50.236;11.734;2023-03-23T14:42:15;2.07;;;1.87;;
29030;SDS011;16122;50.236;11.734;2023-03-23T14:44:57;1.70;;;1.43;;
29030;SDS011;16122;50.236;11.734;2023-03-23T14:47:27;1.33;;;1.17;;
29030;SDS011;16122;50.236;11.734;2023-03-23T14:49:57;1.50;;;1.37;;
29030;SDS011;16122;50.236;11.734;2023-03-23T14:52:26;2.07;;;1.50;;
29030;SDS011;16122;50.236;11.734;2023-03-23T14:54:53;2.50;;;2.30;;
29030;SDS011;16122;50.236;11.734;2023-03-23T14:57:26;1.30;;;1.20;;
29030;SDS011;16122;50.236;11.734;2023-03-23T14:59:54;2.87;;;1.60;;
29030;SDS011;16122;50.236;11.734;2023-03-23T15:02:31;1.80;;;1.57;;
29030;SDS011;16122;50.236;11.734;2023-03-23T15:05:10;1.70;;;1.60;;
29030;SDS011;16122;50.236;11.734;2023-03-23T15:07:40;2.50;;;1.70;;
29030;SDS011;16122;50.236;11.734;2023-03-23T15:10:12;1.57;;;1.47;;
29030;SDS011;16122;50.236;11.734;2023-03-23T15:12:43;2.90;;;1.40;;
29030;SDS011;16122;50.236;11.734;2023-03-23T15:15:21;1.70;;;1.60;;
29030;SDS011;16122;50.236;11.734;2023-03-23T15:17:50;2.10;;;1.90;;
29030;SDS011;16122;50.236;11.734;2023-03-23T15:22:53;1.80;;;1.43;;
29030;SDS011;16122;50.236;11.734;2023-03-23T15:27:51;1.57;;;1.47;;
29030;SDS011;16122;50.236;11.734;2023-03-23T15:37:27;1.60;;;1.50;;
29030;SDS011;16122;50.236;11.734;2023-03-23T15:39:59;1.93;;;1.73;;
29030;SDS011;16122;50.236;11.734;2023-03-23T15:42:32;1.77;;;1.40;;
29030;SDS011;16122;50.236;11.734;2023-03-23T15:52:43;2.30;;;1.50;;
29030;SDS011;16122;50.236;11.734;2023-03-23T15:57:48;2.30;;;1.70;;
29030;SDS011;16122;50.236;11.734;2023-03-23T16:00:15;2.60;;;1.63;;
29030;SDS011;16122;50.236;11.734;2023-03-23T16:02:43;1.70;;;1.60;;
29030;SDS011;16122;50.236;11.734;2023-03-23T16:05:15;3.90;;;1.80;;
29030;SDS011;16122;50.236;11.734;2023-03-23T16:07:41;1.70;;;1.30;;
29030;SDS011;16122;50.236;11.734;2023-03-23T16:10:09;1.60;;;1.50;;
29030;SDS011;16122;50.236;11.734;2023-03-23T16:12:41;2.37;;;1.50;;
29030;SDS011;16122;50.236;11.734;2023-03-23T16:15:07;1.23;;;1.13;;
29030;SDS011;16122;50.236;11.734;2023-03-23T16:17:33;2.07;;;1.47;;
29030;SDS011;16122;50.236;11.734;2023-03-23T16:20:00;1.80;;;1.50;;
29030;SDS011;16122;50.236;11.734;2023-03-23T16:22:27;3.07;;;1.63;;
29030;SDS011;16122;50.236;11.734;2023-03-23T16:24:53;6.17;;;1.60;;
29030;SDS011;16122;50.236;11.734;2023-03-23T16:27:18;2.60;;;1.50;;
29030;SDS011;16122;50.236;11.734;2023-03-23T16:29:45;1.80;;;1.57;;
29030;SDS011;16122;50.236;11.734;2023-03-23T16:32:11;1.60;;;1.30;;
29030;SDS011;16122;50.236;11.734;2023-03-23T16:34:37;4.37;;;1.50;;
29030;SDS011;16122;50.236;11.734;2023-03-23T16:37:03;2.40;;;1.50;;
29030;SDS011;16122;50.236;11.734;2023-03-23T16:39:30;1.50;;;1.40;;
29030;SDS011;16122;50.236;11.734;2023-03-23T16:41:56;2.03;;;1.47;;
29030;SDS011;16122;50.236;11.734;2023-03-23T16:44:22;2.23;;;1.30;;
29030;SDS011;16122;50.236;11.734;2023-03-23T16:46:48;1.63;;;1.40;;
29030;SDS011;16122;50.236;11.734;2023-03-23T16:49:14;2.70;;;1.47;;
29030;SDS011;16122;50.236;11.734;2023-03-23T16:51:40;2.13;;;1.30;;
29030;SDS011;16122;50.236;11.734;2023-03-23T16:54:06;2.23;;;1.87;;
29030;SDS011;16122;50.236;11.734;2023-03-23T16:56:31;1.30;;;1.10;;
29030;SDS011;16122;50.236;11.734;2023-03-23T16:58:57;1.57;;;1.20;;
29030;SDS011;16122;50.236;11.734;2023-03-23T17:01:23;1.53;;;1.13;;
29030;SDS011;16122;50.236;11.734;2023-03-23T17:03:49;3.27;;;1.40;;
29030;SDS011;16122;50.236;11.734;2023-03-23T17:06:15;3.63;;;1.20;;
29030;SDS011;16122;50.236;11.734;2023-03-23T17:08:41;2.33;;;1.37;;
29030;SDS011;16122;50.236;11.734;2023-03-23T17:11:06;2.47;;;1.40;;
29030;SDS011;16122;50.236;11.734;2023-03-23T17:13:32;4.37;;;1.23;;
29030;SDS011;16122;50.236;11.734;2023-03-23T17:15:58;2.03;;;1.40;;
29030;SDS011;16122;50.236;11.734;2023-03-23T17:18:24;3.00;;;1.33;;
29030;SDS011;16122;50.236;11.734;2023-03-23T17:20:52;1.33;;;1.17;;